Hewitt, TX (76643)

10:18 AM CST on December 07, 2016 (GMT -0600)
Imperial Estates | | Change Station

Elev 676 ft 31.47 °N, 97.19 °W | Updated 23 seconds ago

Mostly Cloudy
Mostly Cloudy
53.1 °F
Feels Like 53.1 °F
N
3.0
Wind Variable Wind from ESE

Today
High -- | Low -- °F
--% Chance of Precip.
Yesterday
High -- | Low -- °F
Precip. -- in
Pressure 30.18 in
Visibility 10.0 miles
Clouds Scattered Clouds 1800 ft
Mostly Cloudy 4400 ft
Dew Point 46 °F
Humidity 78%
Rainfall 0.00 in
Snow Depth Not available.
7:15 AM 5:25 PM
First Quarter, 53% visible
METAR KPWG 071556Z AUTO 16008KT 10SM SCT018 BKN044 10/06 A3013 RMK AO2 SLP218 T01000061
Pressure 30.18 in
Visibility 10.0 miles
Clouds Scattered Clouds 1800 ft
Mostly Cloudy 4400 ft
Dew Point 46 °F
Humidity 78%
Rainfall 0.00 in
Snow Depth Not available.
7:15 AM 5:25 PM
First Quarter, 53% visible
METAR KPWG 071556Z AUTO 16008KT 10SM SCT018 BKN044 10/06 A3013 RMK AO2 SLP218 T01000061

10-Day Weather Forecast

Almanac

Astronomy

Dec. 07, 2016 Rise Set
Actual Time
Civil Twilight
Nautical Twilight
Astronomical Twilight
Moon
Length of Visible Light
Length of Day
Tomorrow will be .
, % of the Moon is Illuminated

Today's Extremes

State Highs State Lows

Community

WunderPhotos

Upload Photos

1,956,132 photos uploaded!

WunderBlog® & News

Nearby

Air Quality

  Air Quality AQ Index Pollutant
Not available.

Snow Depth

Station Depth Elevation

Earthquake Activity

City Distance Mag. Time & Date
Minimum magnitude displayed is 2.5.

Coastal Water Temperatures

Place Temperature

Stations

Nearby Weather Stations

Station Location Temp. Windchill Dew Point Humidity Wind Precip. Elev Updated Type
                   

Watches & Warnings

There are currently no watches in effect.